createdAt,value
2023-11-01T00:00:40.171Z,83.89
2023-11-01T00:05:42.183Z,84.61
2023-11-01T00:10:43.895Z,85.67
2023-11-01T00:15:45.615Z,85.79
2023-11-01T00:20:47.383Z,86.67
2023-11-01T00:25:49.142Z,86.66
2023-11-01T00:30:50.808Z,86.20
2023-11-01T00:35:52.537Z,86.27
2023-11-01T00:40:54.243Z,86.65
2023-11-01T00:45:55.980Z,86.79
2023-11-01T00:50:57.646Z,87.11
2023-11-01T00:55:59.380Z,87.43
2023-11-01T01:01:01.581Z,86.90
2023-11-01T01:06:04.334Z,87.38
2023-11-01T01:11:06.167Z,87.98
2023-11-01T01:16:08.373Z,88.71
2023-11-01T01:21:10.109Z,88.90
2023-11-01T01:26:11.862Z,88.75
2023-11-01T01:31:13.690Z,89.78
2023-11-01T01:36:15.409Z,90.47
2023-11-01T01:41:17.260Z,90.85
2023-11-01T01:46:19.361Z,91.57
2023-11-01T01:51:22.637Z,91.81
2023-11-01T01:56:25.773Z,92.84
2023-11-01T02:01:39.162Z,93.27
2023-11-01T02:06:46.430Z,93.40
2023-11-01T02:11:48.147Z,93.90
2023-11-01T02:16:51.228Z,94.35
2023-11-01T02:21:52.956Z,93.96
2023-11-01T02:26:54.644Z,93.74
2023-11-01T02:31:56.297Z,93.78
2023-11-01T02:36:57.979Z,93.87
2023-11-01T02:42:00.548Z,93.21
2023-11-01T02:47:02.540Z,92.77
2023-11-01T02:52:04.470Z,92.45
2023-11-01T02:57:06.542Z,92.69
2023-11-01T03:02:08.277Z,92.62
2023-11-01T03:07:09.945Z,92.86
2023-11-01T03:12:11.664Z,92.58
2023-11-01T03:17:13.590Z,92.33
2023-11-01T03:22:15.394Z,92.44
2023-11-01T03:27:17.028Z,91.94
2023-11-01T03:32:19.045Z,90.96
2023-11-01T03:37:20.768Z,90.01
2023-11-01T03:42:23.101Z,90.20
2023-11-01T03:47:25.103Z,89.65
2023-11-01T03:52:27.691Z,89.66
2023-11-01T03:57:29.388Z,89.58
2023-11-01T04:02:31.349Z,89.97
2023-11-01T04:07:33.068Z,90.35
2023-11-01T04:12:34.710Z,90.80
2023-11-01T04:17:36.402Z,90.94
2023-11-01T04:22:38.854Z,90.87
2023-11-01T04:27:43.378Z,91.21
2023-11-01T04:32:45.125Z,91.63
2023-11-01T04:37:46.984Z,91.73
2023-11-01T04:42:49.229Z,91.79
2023-11-01T04:47:51.038Z,91.44
2023-11-01T04:52:53.164Z,91.25
2023-11-01T04:57:54.814Z,91.40
2023-11-01T05:02:56.620Z,91.66
2023-11-01T05:07:58.354Z,91.07
2023-11-01T05:13:00.101Z,90.15
2023-11-01T05:18:01.957Z,90.37
2023-11-01T05:23:03.777Z,89.85
2023-11-01T05:28:05.542Z,90.38
2023-11-01T05:33:07.386Z,90.50
2023-11-01T05:38:09.090Z,90.11
2023-11-01T05:43:10.724Z,90.35
2023-11-01T05:48:12.506Z,90.18
2023-11-01T05:53:14.174Z,89.68
2023-11-01T05:58:15.876Z,88.82
2023-11-01T06:03:17.747Z,89.38
2023-11-01T06:08:19.659Z,89.04
2023-11-01T06:13:22.020Z,88.09
2023-11-01T06:18:23.796Z,88.62
2023-11-01T06:23:26.110Z,88.42
2023-11-01T06:28:27.964Z,89.16
2023-11-01T06:33:29.711Z,88.80
2023-11-01T06:38:31.477Z,88.68
2023-11-01T06:43:33.236Z,88.53
2023-11-01T06:48:35.013Z,89.95
2023-11-01T06:53:36.740Z,90.38
2023-11-01T06:58:38.457Z,90.74
2023-11-01T07:03:40.306Z,91.66
2023-11-01T07:08:44.156Z,90.84
2023-11-01T07:13:46.261Z,89.89
2023-11-01T07:18:47.907Z,88.65
2023-11-01T07:23:49.761Z,87.18
2023-11-01T07:28:51.508Z,86.56
2023-11-01T07:33:53.264Z,86.26
2023-11-01T07:38:55.192Z,86.26
2023-11-01T07:43:56.975Z,85.83
2023-11-01T07:48:58.633Z,85.48
2023-11-01T07:54:00.372Z,85.21
2023-11-01T07:59:02.241Z,85.47
2023-11-01T08:04:04.596Z,84.54
2023-11-01T08:09:06.801Z,83.96
2023-11-01T08:14:09.054Z,82.54
2023-11-01T08:19:11.105Z,80.92
2023-11-01T08:24:12.926Z,79.55
2023-11-01T08:29:14.698Z,78.94
2023-11-01T08:34:16.362Z,78.93
2023-11-01T08:39:18.560Z,79.27
2023-11-01T08:44:20.395Z,80.37
2023-11-01T08:49:22.163Z,81.24
2023-11-01T08:54:26.037Z,81.89
2023-11-01T08:59:27.688Z,82.47
2023-11-01T09:04:29.667Z,82.99
2023-11-01T09:09:31.437Z,81.90
2023-11-01T09:14:33.180Z,81.10
2023-11-01T09:19:35.159Z,77.12
2023-11-01T09:24:36.928Z,77.15
2023-11-01T09:29:38.745Z,75.63
2023-11-01T09:34:41.289Z,74.70
2023-11-01T09:39:43.064Z,74.68
2023-11-01T09:44:47.154Z,73.69
2023-11-01T09:49:49.695Z,73.56
2023-11-01T09:54:51.520Z,72.22
2023-11-01T09:59:54.237Z,71.25
2023-11-01T10:04:56.756Z,71.20
2023-11-01T10:09:58.660Z,69.88
2023-11-01T10:15:02.733Z,70.54
2023-11-01T10:20:04.872Z,69.89
2023-11-01T10:25:08.134Z,69.32
2023-11-01T10:30:10.470Z,70.00
2023-11-01T10:35:15.699Z,69.68
2023-11-01T10:40:17.568Z,69.56
2023-11-01T10:45:19.682Z,69.49
2023-11-01T10:50:21.924Z,69.35
2023-11-01T10:55:25.431Z,68.44
2023-11-01T11:00:34.129Z,68.85
2023-11-01T11:05:41.255Z,68.77
2023-11-01T11:10:44.477Z,68.41
2023-11-01T11:15:49.463Z,68.27
2023-11-01T11:20:56.587Z,67.83
2023-11-01T11:26:00.153Z,67.11
2023-11-01T11:31:30.765Z,67.29
2023-11-01T11:36:32.495Z,68.17
2023-11-01T11:41:37.161Z,66.89
2023-11-01T11:46:50.382Z,66.83
2023-11-01T11:52:04.217Z,65.19
2023-11-01T11:57:12.437Z,65.66
2023-11-01T12:02:17.640Z,65.47
2023-11-01T12:07:19.952Z,64.81
2023-11-01T12:12:22.615Z,64.69
2023-11-01T12:17:24.456Z,63.50
2023-11-01T12:22:26.439Z,63.19
2023-11-01T12:27:32.541Z,63.55
2023-11-01T12:32:39.785Z,62.91
2023-11-01T12:37:43.324Z,62.63
2023-11-01T12:42:52.521Z,63.51
2023-11-01T12:47:54.953Z,64.26
2023-11-01T12:52:57.177Z,63.92
2023-11-01T12:58:03.771Z,64.75
2023-11-01T13:03:05.768Z,67.54
2023-11-01T13:08:07.695Z,68.33
2023-11-01T13:13:09.353Z,69.29
2023-11-01T13:18:11.129Z,69.09
2023-11-01T13:23:13.017Z,69.77
2023-11-01T13:28:14.760Z,69.83
2023-11-01T13:33:16.575Z,69.94
2023-11-01T13:38:18.630Z,69.43
2023-11-01T13:43:20.977Z,70.07
2023-11-01T13:48:23.751Z,70.97
2023-11-01T13:53:25.707Z,71.32
2023-11-01T13:58:28.025Z,71.90
2023-11-01T14:03:30.148Z,71.98
2023-11-01T14:08:31.993Z,71.86
2023-11-01T14:13:33.725Z,71.82
2023-11-01T14:18:35.763Z,72.05
2023-11-01T14:23:40.866Z,72.44
2023-11-01T14:28:42.744Z,73.34
2023-11-01T14:33:44.749Z,73.65
2023-11-01T14:38:46.550Z,73.77
2023-11-01T14:43:48.320Z,74.39
2023-11-01T14:48:50.845Z,74.99
2023-11-01T14:53:52.552Z,75.79
2023-11-01T14:58:55.417Z,76.33
2023-11-01T15:03:57.162Z,76.09
2023-11-01T15:08:58.979Z,76.78
2023-11-01T15:14:01.308Z,76.71
2023-11-01T15:19:03.013Z,77.37
2023-11-01T15:24:06.143Z,77.96
2023-11-01T15:29:08.048Z,79.17
2023-11-01T15:34:09.891Z,80.53
2023-11-01T15:39:13.678Z,81.02
2023-11-01T15:44:15.485Z,81.15
2023-11-01T15:49:17.340Z,81.80
2023-11-01T15:54:19.316Z,83.21
2023-11-01T15:59:21.018Z,82.92
2023-11-01T16:04:23.145Z,83.14
2023-11-01T16:09:25.046Z,83.34
2023-11-01T16:14:28.230Z,83.88
2023-11-01T16:19:30.065Z,84.51
2023-11-01T16:24:31.936Z,85.28
2023-11-01T16:29:33.638Z,85.71
2023-11-01T16:34:35.451Z,85.90
2023-11-01T16:39:37.773Z,85.48
2023-11-01T16:44:48.138Z,85.70
2023-11-01T16:49:50.437Z,85.99
2023-11-01T16:54:56.450Z,86.56
2023-11-01T16:59:58.291Z,86.56
2023-11-01T17:05:00.175Z,87.11
2023-11-01T17:10:01.924Z,86.82
2023-11-01T17:15:05.391Z,86.90
2023-11-01T17:20:08.800Z,86.76
2023-11-01T17:25:32.486Z,86.52
2023-11-01T17:30:37.483Z,86.69
2023-11-01T17:35:41.587Z,86.44
2023-11-01T17:40:45.465Z,87.11
2023-11-01T17:45:48.118Z,87.52
2023-11-01T17:50:50.671Z,87.61
2023-11-01T17:55:52.442Z,88.10
2023-11-01T18:00:54.307Z,88.42
2023-11-01T18:05:56.258Z,89.35
2023-11-01T18:10:59.033Z,89.23
2023-11-01T18:16:06.010Z,89.25
2023-11-01T18:21:26.303Z,88.61
2023-11-01T18:26:29.553Z,88.25
2023-11-01T18:31:32.069Z,87.51
2023-11-01T18:36:44.929Z,87.89
2023-11-01T18:41:47.234Z,87.23
2023-11-01T18:46:48.962Z,89.02
2023-11-01T18:51:57.708Z,88.96
2023-11-01T18:56:59.415Z,89.40
2023-11-01T19:02:01.858Z,90.36
2023-11-01T19:07:05.729Z,91.69
2023-11-01T19:12:07.681Z,92.76
2023-11-01T19:17:09.558Z,93.56
2023-11-01T19:22:11.370Z,94.64
2023-11-01T19:27:18.418Z,93.25
2023-11-01T19:32:26.006Z,92.67
2023-11-01T19:37:27.862Z,91.92
2023-11-01T19:42:33.599Z,91.99
2023-11-01T19:47:37.500Z,92.04
2023-11-01T19:52:39.543Z,91.94
2023-11-01T19:57:41.250Z,92.74
2023-11-01T20:02:43.511Z,93.17
2023-11-01T20:07:45.402Z,93.70
2023-11-01T20:12:47.505Z,94.64
2023-11-01T20:17:49.568Z,95.09
2023-11-01T20:22:52.485Z,95.61
2023-11-01T20:27:54.457Z,96.03
2023-11-01T20:32:56.395Z,95.66
2023-11-01T20:37:58.207Z,95.33
2023-11-01T20:42:59.971Z,95.05
2023-11-01T20:48:01.971Z,94.33
2023-11-01T20:53:03.777Z,94.57
2023-11-01T20:58:07.244Z,94.60
2023-11-01T21:03:09.119Z,94.57
2023-11-01T21:08:10.863Z,95.45
2023-11-01T21:13:12.569Z,96.27
2023-11-01T21:18:14.427Z,96.69
2023-11-01T21:23:16.398Z,96.52
2023-11-01T21:28:18.199Z,96.66
2023-11-01T21:33:22.648Z,96.64
2023-11-01T21:38:25.222Z,96.30
2023-11-01T21:43:27.279Z,96.14
2023-11-01T21:48:30.713Z,96.02
2023-11-01T21:53:35.038Z,96.23
2023-11-01T21:58:37.155Z,95.44
2023-11-01T22:03:50.279Z,94.50
2023-11-01T22:08:55.155Z,93.58
2023-11-01T22:13:58.907Z,93.91
2023-11-01T22:19:02.541Z,93.93
2023-11-01T22:24:08.249Z,93.70
2023-11-01T22:29:12.754Z,93.67
2023-11-01T22:34:14.606Z,94.24
2023-11-01T22:39:33.161Z,94.08
2023-11-01T22:44:34.901Z,94.08
2023-11-01T22:49:36.992Z,93.44
2023-11-01T22:54:39.595Z,93.05
2023-11-01T22:59:44.727Z,92.65
2023-11-01T23:04:46.414Z,92.16
2023-11-01T23:09:48.572Z,91.92
2023-11-01T23:14:50.392Z,91.58
2023-11-01T23:19:52.335Z,91.79
2023-11-01T23:24:54.006Z,91.98
2023-11-01T23:29:55.730Z,92.12
2023-11-01T23:34:58.343Z,93.28
2023-11-01T23:40:00.573Z,93.40
2023-11-01T23:45:28.556Z,93.12
2023-11-01T23:50:34.974Z,93.83
2023-11-01T23:55:40.179Z,93.98
